sensor_id;sensor_type;location;lat;lon;timestamp;P1;durP1;ratioP1;P2;durP2;ratioP2
78614;SDS011;67937;52.488;20.952;2024-01-15T00:00:55;14.10;;;9.70;;
78614;SDS011;67937;52.488;20.952;2024-01-15T00:03:43;12.80;;;9.90;;
78614;SDS011;67937;52.488;20.952;2024-01-15T00:06:11;10.00;;;7.20;;
78614;SDS011;67937;52.488;20.952;2024-01-15T00:08:39;7.60;;;6.20;;
78614;SDS011;67937;52.488;20.952;2024-01-15T00:11:07;10.70;;;8.10;;
78614;SDS011;67937;52.488;20.952;2024-01-15T00:13:35;9.50;;;6.80;;
78614;SDS011;67937;52.488;20.952;2024-01-15T00:16:04;12.80;;;8.10;;
78614;SDS011;67937;52.488;20.952;2024-01-15T00:18:32;12.90;;;7.70;;
78614;SDS011;67937;52.488;20.952;2024-01-15T00:21:00;7.00;;;5.60;;
78614;SDS011;67937;52.488;20.952;2024-01-15T00:23:28;13.10;;;8.50;;
78614;SDS011;67937;52.488;20.952;2024-01-15T00:25:56;9.20;;;4.60;;
78614;SDS011;67937;52.488;20.952;2024-01-15T00:28:24;12.80;;;9.10;;
78614;SDS011;67937;52.488;20.952;2024-01-15T00:30:52;8.90;;;6.30;;
78614;SDS011;67937;52.488;20.952;2024-01-15T00:33:20;9.00;;;6.30;;
78614;SDS011;67937;52.488;20.952;2024-01-15T00:35:48;11.10;;;6.90;;
78614;SDS011;67937;52.488;20.952;2024-01-15T00:38:16;9.60;;;7.60;;
78614;SDS011;67937;52.488;20.952;2024-01-15T00:40:44;8.80;;;6.80;;
78614;SDS011;67937;52.488;20.952;2024-01-15T00:43:12;5.10;;;3.40;;
78614;SDS011;67937;52.488;20.952;2024-01-15T00:45:40;11.10;;;8.90;;
78614;SDS011;67937;52.488;20.952;2024-01-15T00:48:08;10.90;;;7.10;;
78614;SDS011;67937;52.488;20.952;2024-01-15T00:50:37;9.30;;;6.20;;
78614;SDS011;67937;52.488;20.952;2024-01-15T00:53:05;12.50;;;9.10;;
78614;SDS011;67937;52.488;20.952;2024-01-15T00:55:33;8.00;;;6.10;;
78614;SDS011;67937;52.488;20.952;2024-01-15T00:58:03;9.60;;;7.60;;
78614;SDS011;67937;52.488;20.952;2024-01-15T01:00:31;17.30;;;9.70;;
78614;SDS011;67937;52.488;20.952;2024-01-15T01:02:59;9.80;;;6.60;;
78614;SDS011;67937;52.488;20.952;2024-01-15T01:05:27;10.70;;;8.10;;
78614;SDS011;67937;52.488;20.952;2024-01-15T01:07:55;7.20;;;5.80;;
78614;SDS011;67937;52.488;20.952;2024-01-15T01:10:23;6.90;;;5.90;;
78614;SDS011;67937;52.488;20.952;2024-01-15T01:12:51;3.30;;;3.00;;
78614;SDS011;67937;52.488;20.952;2024-01-15T01:15:19;12.10;;;7.20;;
78614;SDS011;67937;52.488;20.952;2024-01-15T01:17:47;9.30;;;6.30;;
78614;SDS011;67937;52.488;20.952;2024-01-15T01:20:15;17.50;;;10.80;;
78614;SDS011;67937;52.488;20.952;2024-01-15T01:22:43;15.70;;;9.80;;
78614;SDS011;67937;52.488;20.952;2024-01-15T01:25:11;13.60;;;10.50;;
78614;SDS011;67937;52.488;20.952;2024-01-15T01:27:39;12.20;;;8.40;;
78614;SDS011;67937;52.488;20.952;2024-01-15T01:30:08;13.40;;;9.30;;
78614;SDS011;67937;52.488;20.952;2024-01-15T01:32:36;13.60;;;8.40;;
78614;SDS011;67937;52.488;20.952;2024-01-15T01:35:04;9.60;;;6.70;;
78614;SDS011;67937;52.488;20.952;2024-01-15T01:37:33;13.70;;;9.70;;
78614;SDS011;67937;52.488;20.952;2024-01-15T01:40:01;8.40;;;5.70;;
78614;SDS011;67937;52.488;20.952;2024-01-15T01:42:29;6.60;;;5.00;;
78614;SDS011;67937;52.488;20.952;2024-01-15T01:44:57;15.10;;;9.40;;
78614;SDS011;67937;52.488;20.952;2024-01-15T01:47:25;13.20;;;8.90;;
78614;SDS011;67937;52.488;20.952;2024-01-15T01:49:53;9.60;;;7.00;;
78614;SDS011;67937;52.488;20.952;2024-01-15T01:52:22;9.10;;;7.10;;
78614;SDS011;67937;52.488;20.952;2024-01-15T01:54:50;11.80;;;8.00;;
78614;SDS011;67937;52.488;20.952;2024-01-15T01:57:19;8.00;;;5.70;;
78614;SDS011;67937;52.488;20.952;2024-01-15T01:59:48;12.40;;;8.10;;
78614;SDS011;67937;52.488;20.952;2024-01-15T02:02:16;15.40;;;9.80;;
78614;SDS011;67937;52.488;20.952;2024-01-15T02:04:44;11.60;;;8.00;;
78614;SDS011;67937;52.488;20.952;2024-01-15T02:07:12;13.40;;;9.10;;
78614;SDS011;67937;52.488;20.952;2024-01-15T02:09:41;16.80;;;9.60;;
78614;SDS011;67937;52.488;20.952;2024-01-15T02:12:09;11.20;;;6.80;;
78614;SDS011;67937;52.488;20.952;2024-01-15T02:14:37;9.00;;;6.50;;
78614;SDS011;67937;52.488;20.952;2024-01-15T02:17:06;10.50;;;7.30;;
78614;SDS011;67937;52.488;20.952;2024-01-15T02:19:34;13.70;;;12.10;;
78614;SDS011;67937;52.488;20.952;2024-01-15T02:22:02;12.70;;;8.60;;
78614;SDS011;67937;52.488;20.952;2024-01-15T02:24:30;8.50;;;6.00;;
78614;SDS011;67937;52.488;20.952;2024-01-15T02:26:58;11.60;;;8.20;;
78614;SDS011;67937;52.488;20.952;2024-01-15T02:29:27;14.00;;;9.30;;
78614;SDS011;67937;52.488;20.952;2024-01-15T02:31:55;12.80;;;9.50;;
78614;SDS011;67937;52.488;20.952;2024-01-15T02:34:23;15.30;;;7.90;;
78614;SDS011;67937;52.488;20.952;2024-01-15T02:36:51;13.20;;;8.80;;
78614;SDS011;67937;52.488;20.952;2024-01-15T02:39:19;9.20;;;6.70;;
78614;SDS011;67937;52.488;20.952;2024-01-15T02:41:47;10.50;;;6.90;;
78614;SDS011;67937;52.488;20.952;2024-01-15T02:44:15;10.20;;;8.20;;
78614;SDS011;67937;52.488;20.952;2024-01-15T02:46:43;13.20;;;10.30;;
78614;SDS011;67937;52.488;20.952;2024-01-15T02:49:11;12.50;;;8.00;;
78614;SDS011;67937;52.488;20.952;2024-01-15T02:51:38;10.10;;;5.70;;
78614;SDS011;67937;52.488;20.952;2024-01-15T02:54:06;12.60;;;9.70;;
78614;SDS011;67937;52.488;20.952;2024-01-15T02:56:34;11.00;;;7.60;;
78614;SDS011;67937;52.488;20.952;2024-01-15T02:59:02;14.10;;;10.10;;
78614;SDS011;67937;52.488;20.952;2024-01-15T03:01:30;11.40;;;7.60;;
78614;SDS011;67937;52.488;20.952;2024-01-15T03:03:58;16.50;;;10.50;;
78614;SDS011;67937;52.488;20.952;2024-01-15T03:06:26;18.70;;;14.60;;
78614;SDS011;67937;52.488;20.952;2024-01-15T03:08:54;15.80;;;11.10;;
78614;SDS011;67937;52.488;20.952;2024-01-15T03:11:22;16.60;;;11.50;;
78614;SDS011;67937;52.488;20.952;2024-01-15T03:13:50;19.50;;;13.40;;
78614;SDS011;67937;52.488;20.952;2024-01-15T03:16:18;18.60;;;13.70;;
78614;SDS011;67937;52.488;20.952;2024-01-15T03:18:47;19.50;;;14.00;;
78614;SDS011;67937;52.488;20.952;2024-01-15T03:21:15;17.10;;;10.90;;
78614;SDS011;67937;52.488;20.952;2024-01-15T03:23:43;18.50;;;14.60;;
78614;SDS011;67937;52.488;20.952;2024-01-15T03:26:10;20.00;;;12.60;;
78614;SDS011;67937;52.488;20.952;2024-01-15T03:28:38;20.00;;;13.90;;
78614;SDS011;67937;52.488;20.952;2024-01-15T03:31:07;17.90;;;13.10;;
78614;SDS011;67937;52.488;20.952;2024-01-15T03:33:35;16.20;;;11.60;;
78614;SDS011;67937;52.488;20.952;2024-01-15T03:36:03;16.60;;;11.60;;
78614;SDS011;67937;52.488;20.952;2024-01-15T03:38:31;21.90;;;14.80;;
78614;SDS011;67937;52.488;20.952;2024-01-15T03:40:59;19.80;;;11.90;;
78614;SDS011;67937;52.488;20.952;2024-01-15T03:43:27;19.00;;;10.70;;
78614;SDS011;67937;52.488;20.952;2024-01-15T03:45:55;12.50;;;8.40;;
78614;SDS011;67937;52.488;20.952;2024-01-15T03:48:23;19.80;;;14.60;;
78614;SDS011;67937;52.488;20.952;2024-01-15T03:50:50;19.30;;;12.00;;
78614;SDS011;67937;52.488;20.952;2024-01-15T03:53:18;18.80;;;14.00;;
78614;SDS011;67937;52.488;20.952;2024-01-15T03:55:47;10.90;;;7.30;;
78614;SDS011;67937;52.488;20.952;2024-01-15T03:58:15;20.80;;;14.20;;
78614;SDS011;67937;52.488;20.952;2024-01-15T04:00:43;17.40;;;11.50;;
78614;SDS011;67937;52.488;20.952;2024-01-15T04:03:11;10.10;;;7.00;;
78614;SDS011;67937;52.488;20.952;2024-01-15T04:05:39;12.20;;;8.40;;
78614;SDS011;67937;52.488;20.952;2024-01-15T04:08:07;7.00;;;6.30;;
78614;SDS011;67937;52.488;20.952;2024-01-15T04:10:35;15.70;;;10.20;;
78614;SDS011;67937;52.488;20.952;2024-01-15T04:13:03;19.30;;;14.00;;
78614;SDS011;67937;52.488;20.952;2024-01-15T04:15:31;19.70;;;13.20;;
78614;SDS011;67937;52.488;20.952;2024-01-15T04:17:59;16.10;;;9.30;;
78614;SDS011;67937;52.488;20.952;2024-01-15T04:20:27;18.90;;;14.80;;
78614;SDS011;67937;52.488;20.952;2024-01-15T04:22:55;21.70;;;13.70;;
78614;SDS011;67937;52.488;20.952;2024-01-15T04:25:23;18.10;;;12.80;;
78614;SDS011;67937;52.488;20.952;2024-01-15T04:27:51;25.70;;;16.50;;
78614;SDS011;67937;52.488;20.952;2024-01-15T04:30:19;11.90;;;7.70;;
78614;SDS011;67937;52.488;20.952;2024-01-15T04:32:47;12.60;;;8.00;;
78614;SDS011;67937;52.488;20.952;2024-01-15T04:35:15;19.10;;;13.50;;
78614;SDS011;67937;52.488;20.952;2024-01-15T04:37:43;20.30;;;14.80;;
78614;SDS011;67937;52.488;20.952;2024-01-15T04:40:11;21.80;;;13.70;;
78614;SDS011;67937;52.488;20.952;2024-01-15T04:42:39;16.20;;;11.70;;
78614;SDS011;67937;52.488;20.952;2024-01-15T04:45:07;18.40;;;11.70;;
78614;SDS011;67937;52.488;20.952;2024-01-15T04:47:35;22.30;;;14.70;;
78614;SDS011;67937;52.488;20.952;2024-01-15T04:50:04;23.10;;;15.60;;
78614;SDS011;67937;52.488;20.952;2024-01-15T04:52:33;10.00;;;6.70;;
78614;SDS011;67937;52.488;20.952;2024-01-15T04:55:01;20.90;;;14.50;;
78614;SDS011;67937;52.488;20.952;2024-01-15T04:57:29;18.40;;;12.10;;
78614;SDS011;67937;52.488;20.952;2024-01-15T04:59:57;18.80;;;12.80;;
78614;SDS011;67937;52.488;20.952;2024-01-15T05:02:25;15.90;;;11.00;;
78614;SDS011;67937;52.488;20.952;2024-01-15T05:04:53;20.80;;;14.00;;
78614;SDS011;67937;52.488;20.952;2024-01-15T05:07:21;12.80;;;7.50;;
78614;SDS011;67937;52.488;20.952;2024-01-15T05:09:48;19.50;;;13.00;;
78614;SDS011;67937;52.488;20.952;2024-01-15T05:12:16;19.20;;;12.60;;
78614;SDS011;67937;52.488;20.952;2024-01-15T05:14:45;17.40;;;11.20;;
78614;SDS011;67937;52.488;20.952;2024-01-15T05:17:13;19.40;;;12.20;;
78614;SDS011;67937;52.488;20.952;2024-01-15T05:19:41;17.50;;;12.20;;
78614;SDS011;67937;52.488;20.952;2024-01-15T05:22:08;17.90;;;12.30;;
78614;SDS011;67937;52.488;20.952;2024-01-15T05:24:36;14.40;;;8.60;;
78614;SDS011;67937;52.488;20.952;2024-01-15T05:27:05;18.00;;;12.40;;
78614;SDS011;67937;52.488;20.952;2024-01-15T05:29:32;19.80;;;10.40;;
78614;SDS011;67937;52.488;20.952;2024-01-15T05:32:00;15.30;;;10.10;;
78614;SDS011;67937;52.488;20.952;2024-01-15T05:34:28;17.10;;;12.00;;
78614;SDS011;67937;52.488;20.952;2024-01-15T05:36:56;19.00;;;13.30;;
78614;SDS011;67937;52.488;20.952;2024-01-15T05:39:24;13.60;;;9.20;;
78614;SDS011;67937;52.488;20.952;2024-01-15T05:41:52;19.20;;;13.20;;
78614;SDS011;67937;52.488;20.952;2024-01-15T05:44:20;20.20;;;13.80;;
78614;SDS011;67937;52.488;20.952;2024-01-15T05:46:48;13.90;;;9.30;;
78614;SDS011;67937;52.488;20.952;2024-01-15T05:49:16;18.20;;;10.30;;
78614;SDS011;67937;52.488;20.952;2024-01-15T05:51:44;16.10;;;9.30;;
78614;SDS011;67937;52.488;20.952;2024-01-15T05:54:12;7.90;;;6.50;;
78614;SDS011;67937;52.488;20.952;2024-01-15T05:56:40;10.20;;;8.10;;
78614;SDS011;67937;52.488;20.952;2024-01-15T05:59:07;15.90;;;9.60;;
78614;SDS011;67937;52.488;20.952;2024-01-15T06:01:35;12.50;;;9.10;;
78614;SDS011;67937;52.488;20.952;2024-01-15T06:04:03;10.50;;;7.20;;
78614;SDS011;67937;52.488;20.952;2024-01-15T06:06:31;11.70;;;7.40;;
78614;SDS011;67937;52.488;20.952;2024-01-15T06:08:59;9.80;;;8.20;;
78614;SDS011;67937;52.488;20.952;2024-01-15T06:11:31;12.30;;;7.70;;
78614;SDS011;67937;52.488;20.952;2024-01-15T06:14:00;13.80;;;9.80;;
78614;SDS011;67937;52.488;20.952;2024-01-15T06:16:28;12.80;;;8.30;;
78614;SDS011;67937;52.488;20.952;2024-01-15T06:18:56;11.30;;;7.70;;
78614;SDS011;67937;52.488;20.952;2024-01-15T06:21:24;12.60;;;7.90;;
78614;SDS011;67937;52.488;20.952;2024-01-15T06:23:52;12.30;;;9.00;;
78614;SDS011;67937;52.488;20.952;2024-01-15T06:26:20;11.50;;;7.40;;
78614;SDS011;67937;52.488;20.952;2024-01-15T06:28:48;12.00;;;9.20;;
78614;SDS011;67937;52.488;20.952;2024-01-15T06:31:16;13.70;;;9.10;;
78614;SDS011;67937;52.488;20.952;2024-01-15T06:33:44;7.40;;;5.60;;
78614;SDS011;67937;52.488;20.952;2024-01-15T06:36:14;14.70;;;10.40;;
78614;SDS011;67937;52.488;20.952;2024-01-15T06:38:43;13.70;;;10.40;;
78614;SDS011;67937;52.488;20.952;2024-01-15T06:41:11;12.60;;;9.00;;
78614;SDS011;67937;52.488;20.952;2024-01-15T06:43:39;13.90;;;10.60;;
78614;SDS011;67937;52.488;20.952;2024-01-15T06:46:07;7.80;;;5.50;;
78614;SDS011;67937;52.488;20.952;2024-01-15T06:48:35;17.90;;;12.20;;
78614;SDS011;67937;52.488;20.952;2024-01-15T06:51:03;19.40;;;13.00;;
78614;SDS011;67937;52.488;20.952;2024-01-15T06:53:31;16.60;;;12.90;;
78614;SDS011;67937;52.488;20.952;2024-01-15T06:55:59;11.60;;;7.80;;
78614;SDS011;67937;52.488;20.952;2024-01-15T06:58:27;15.10;;;9.80;;
78614;SDS011;67937;52.488;20.952;2024-01-15T07:00:55;15.10;;;10.50;;
78614;SDS011;67937;52.488;20.952;2024-01-15T07:03:24;20.50;;;14.30;;
78614;SDS011;67937;52.488;20.952;2024-01-15T07:05:52;15.90;;;12.00;;
78614;SDS011;67937;52.488;20.952;2024-01-15T07:08:20;16.50;;;12.10;;
78614;SDS011;67937;52.488;20.952;2024-01-15T07:10:48;18.50;;;11.80;;
78614;SDS011;67937;52.488;20.952;2024-01-15T07:13:15;14.20;;;9.40;;
78614;SDS011;67937;52.488;20.952;2024-01-15T07:15:44;12.80;;;10.60;;
78614;SDS011;67937;52.488;20.952;2024-01-15T07:18:12;13.80;;;9.80;;
78614;SDS011;67937;52.488;20.952;2024-01-15T07:20:40;18.10;;;11.20;;
78614;SDS011;67937;52.488;20.952;2024-01-15T07:23:08;15.90;;;12.80;;
78614;SDS011;67937;52.488;20.952;2024-01-15T07:25:35;16.40;;;11.60;;
78614;SDS011;67937;52.488;20.952;2024-01-15T07:28:03;16.80;;;13.90;;
78614;SDS011;67937;52.488;20.952;2024-01-15T07:30:32;18.60;;;13.50;;
78614;SDS011;67937;52.488;20.952;2024-01-15T07:33:00;17.60;;;12.30;;
78614;SDS011;67937;52.488;20.952;2024-01-15T07:35:28;14.90;;;10.40;;
78614;SDS011;67937;52.488;20.952;2024-01-15T07:37:56;15.90;;;11.60;;
78614;SDS011;67937;52.488;20.952;2024-01-15T07:40:24;17.60;;;11.70;;
78614;SDS011;67937;52.488;20.952;2024-01-15T07:42:52;15.70;;;13.30;;
78614;SDS011;67937;52.488;20.952;2024-01-15T07:45:20;15.20;;;11.80;;
78614;SDS011;67937;52.488;20.952;2024-01-15T07:47:48;15.20;;;11.80;;
78614;SDS011;67937;52.488;20.952;2024-01-15T07:50:16;11.00;;;8.40;;
78614;SDS011;67937;52.488;20.952;2024-01-15T07:52:45;16.20;;;11.00;;
78614;SDS011;67937;52.488;20.952;2024-01-15T07:55:13;15.90;;;10.60;;
78614;SDS011;67937;52.488;20.952;2024-01-15T07:57:41;13.90;;;10.20;;
78614;SDS011;67937;52.488;20.952;2024-01-15T08:00:09;12.10;;;7.90;;
78614;SDS011;67937;52.488;20.952;2024-01-15T08:02:37;14.90;;;9.90;;
78614;SDS011;67937;52.488;20.952;2024-01-15T08:05:06;9.20;;;6.60;;
78614;SDS011;67937;52.488;20.952;2024-01-15T08:07:34;12.80;;;8.70;;
78614;SDS011;67937;52.488;20.952;2024-01-15T08:10:02;8.50;;;5.30;;
78614;SDS011;67937;52.488;20.952;2024-01-15T08:12:30;13.40;;;9.70;;
78614;SDS011;67937;52.488;20.952;2024-01-15T08:14:58;12.30;;;8.40;;
78614;SDS011;67937;52.488;20.952;2024-01-15T08:17:26;8.50;;;4.50;;
78614;SDS011;67937;52.488;20.952;2024-01-15T08:19:55;9.60;;;8.20;;
78614;SDS011;67937;52.488;20.952;2024-01-15T08:22:23;11.40;;;8.70;;
78614;SDS011;67937;52.488;20.952;2024-01-15T08:24:51;12.20;;;9.30;;
78614;SDS011;67937;52.488;20.952;2024-01-15T08:27:19;6.80;;;6.10;;
78614;SDS011;67937;52.488;20.952;2024-01-15T08:29:47;7.80;;;6.00;;
78614;SDS011;67937;52.488;20.952;2024-01-15T08:32:16;9.00;;;7.20;;
78614;SDS011;67937;52.488;20.952;2024-01-15T08:34:44;11.60;;;8.20;;
78614;SDS011;67937;52.488;20.952;2024-01-15T08:37:14;8.20;;;5.50;;
78614;SDS011;67937;52.488;20.952;2024-01-15T08:39:41;8.60;;;6.50;;
78614;SDS011;67937;52.488;20.952;2024-01-15T08:42:09;6.60;;;4.80;;
78614;SDS011;67937;52.488;20.952;2024-01-15T08:44:37;10.40;;;7.60;;
78614;SDS011;67937;52.488;20.952;2024-01-15T08:47:08;8.70;;;4.80;;
78614;SDS011;67937;52.488;20.952;2024-01-15T08:49:36;6.80;;;4.50;;
78614;SDS011;67937;52.488;20.952;2024-01-15T08:52:04;7.70;;;6.20;;
78614;SDS011;67937;52.488;20.952;2024-01-15T08:54:32;7.10;;;4.70;;
78614;SDS011;67937;52.488;20.952;2024-01-15T08:57:00;4.40;;;3.40;;
78614;SDS011;67937;52.488;20.952;2024-01-15T08:59:28;7.20;;;5.60;;
78614;SDS011;67937;52.488;20.952;2024-01-15T09:01:56;5.00;;;3.50;;
78614;SDS011;67937;52.488;20.952;2024-01-15T09:04:24;9.30;;;6.30;;
78614;SDS011;67937;52.488;20.952;2024-01-15T09:06:52;6.20;;;4.10;;
78614;SDS011;67937;52.488;20.952;2024-01-15T09:09:20;7.30;;;3.80;;
78614;SDS011;67937;52.488;20.952;2024-01-15T09:11:48;7.50;;;4.70;;
78614;SDS011;67937;52.488;20.952;2024-01-15T09:14:16;6.80;;;5.50;;
78614;SDS011;67937;52.488;20.952;2024-01-15T09:16:44;10.30;;;6.60;;
78614;SDS011;67937;52.488;20.952;2024-01-15T09:19:13;11.20;;;5.30;;
78614;SDS011;67937;52.488;20.952;2024-01-15T09:21:41;7.20;;;5.00;;
78614;SDS011;67937;52.488;20.952;2024-01-15T09:24:09;5.90;;;4.40;;
78614;SDS011;67937;52.488;20.952;2024-01-15T09:26:37;11.40;;;6.20;;
78614;SDS011;67937;52.488;20.952;2024-01-15T09:29:05;5.10;;;4.50;;
78614;SDS011;67937;52.488;20.952;2024-01-15T09:31:33;5.60;;;4.30;;
78614;SDS011;67937;52.488;20.952;2024-01-15T09:34:01;8.30;;;6.60;;
78614;SDS011;67937;52.488;20.952;2024-01-15T09:36:29;9.20;;;4.90;;
78614;SDS011;67937;52.488;20.952;2024-01-15T09:38:57;5.60;;;4.20;;
78614;SDS011;67937;52.488;20.952;2024-01-15T09:41:25;9.90;;;8.90;;
78614;SDS011;67937;52.488;20.952;2024-01-15T09:43:54;7.80;;;5.10;;
78614;SDS011;67937;52.488;20.952;2024-01-15T09:46:22;6.30;;;4.80;;
78614;SDS011;67937;52.488;20.952;2024-01-15T09:48:50;8.10;;;6.70;;
78614;SDS011;67937;52.488;20.952;2024-01-15T09:51:18;8.40;;;5.90;;
78614;SDS011;67937;52.488;20.952;2024-01-15T09:53:47;9.40;;;6.70;;
78614;SDS011;67937;52.488;20.952;2024-01-15T09:56:16;9.20;;;7.20;;
78614;SDS011;67937;52.488;20.952;2024-01-15T09:58:45;6.70;;;5.00;;
78614;SDS011;67937;52.488;20.952;2024-01-15T10:01:14;7.50;;;6.60;;
78614;SDS011;67937;52.488;20.952;2024-01-15T10:03:44;9.40;;;6.80;;
78614;SDS011;67937;52.488;20.952;2024-01-15T10:06:16;5.10;;;3.70;;
78614;SDS011;67937;52.488;20.952;2024-01-15T10:08:48;6.60;;;4.80;;
78614;SDS011;67937;52.488;20.952;2024-01-15T10:11:18;8.00;;;5.80;;
78614;SDS011;67937;52.488;20.952;2024-01-15T10:13:46;8.70;;;6.60;;
78614;SDS011;67937;52.488;20.952;2024-01-15T10:16:17;8.90;;;5.90;;
78614;SDS011;67937;52.488;20.952;2024-01-15T10:18:45;8.70;;;5.80;;
78614;SDS011;67937;52.488;20.952;2024-01-15T10:21:13;6.70;;;5.00;;
78614;SDS011;67937;52.488;20.952;2024-01-15T10:23:41;6.80;;;6.10;;
78614;SDS011;67937;52.488;20.952;2024-01-15T10:26:10;8.30;;;5.80;;
78614;SDS011;67937;52.488;20.952;2024-01-15T10:28:40;9.50;;;6.30;;
78614;SDS011;67937;52.488;20.952;2024-01-15T10:31:09;8.30;;;6.30;;
78614;SDS011;67937;52.488;20.952;2024-01-15T10:33:38;9.80;;;5.80;;
78614;SDS011;67937;52.488;20.952;2024-01-15T10:36:06;7.30;;;5.50;;
78614;SDS011;67937;52.488;20.952;2024-01-15T10:41:05;9.30;;;5.40;;
78614;SDS011;67937;52.488;20.952;2024-01-15T10:43:33;8.10;;;5.60;;
78614;SDS011;67937;52.488;20.952;2024-01-15T10:46:01;8.40;;;5.70;;
78614;SDS011;67937;52.488;20.952;2024-01-15T10:48:30;6.10;;;4.60;;
78614;SDS011;67937;52.488;20.952;2024-01-15T10:51:02;10.90;;;6.40;;
78614;SDS011;67937;52.488;20.952;2024-01-15T10:53:39;8.00;;;6.20;;
78614;SDS011;67937;52.488;20.952;2024-01-15T10:56:10;9.60;;;7.30;;
78614;SDS011;67937;52.488;20.952;2024-01-15T10:58:40;11.50;;;5.40;;
78614;SDS011;67937;52.488;20.952;2024-01-15T11:01:09;8.00;;;6.20;;
78614;SDS011;67937;52.488;20.952;2024-01-15T11:03:37;12.10;;;6.70;;
78614;SDS011;67937;52.488;20.952;2024-01-15T11:06:15;9.70;;;6.10;;
78614;SDS011;67937;52.488;20.952;2024-01-15T11:08:49;8.20;;;5.60;;
78614;SDS011;67937;52.488;20.952;2024-01-15T11:11:18;10.90;;;8.00;;
78614;SDS011;67937;52.488;20.952;2024-01-15T11:13:48;9.00;;;5.10;;
78614;SDS011;67937;52.488;20.952;2024-01-15T11:16:18;8.00;;;5.80;;
78614;SDS011;67937;52.488;20.952;2024-01-15T11:21:25;7.90;;;5.20;;
78614;SDS011;67937;52.488;20.952;2024-01-15T11:23:57;7.70;;;5.40;;
78614;SDS011;67937;52.488;20.952;2024-01-15T11:26:30;11.20;;;6.50;;
78614;SDS011;67937;52.488;20.952;2024-01-15T11:29:05;10.90;;;7.30;;
78614;SDS011;67937;52.488;20.952;2024-01-15T11:34:08;8.00;;;5.70;;
78614;SDS011;67937;52.488;20.952;2024-01-15T11:41:55;9.30;;;5.70;;
78614;SDS011;67937;52.488;20.952;2024-01-15T11:44:27;10.40;;;5.40;;
78614;SDS011;67937;52.488;20.952;2024-01-15T11:52:32;7.30;;;5.20;;
78614;SDS011;67937;52.488;20.952;2024-01-15T11:55:10;11.70;;;6.70;;
78614;SDS011;67937;52.488;20.952;2024-01-15T11:57:45;7.60;;;5.60;;
78614;SDS011;67937;52.488;20.952;2024-01-15T12:00:17;9.30;;;6.20;;
78614;SDS011;67937;52.488;20.952;2024-01-15T12:02:46;9.70;;;6.50;;
78614;SDS011;67937;52.488;20.952;2024-01-15T12:05:16;9.20;;;5.70;;
78614;SDS011;67937;52.488;20.952;2024-01-15T12:07:45;8.50;;;6.30;;
78614;SDS011;67937;52.488;20.952;2024-01-15T12:10:15;12.50;;;7.60;;
78614;SDS011;67937;52.488;20.952;2024-01-15T12:13:00;6.80;;;5.40;;
78614;SDS011;67937;52.488;20.952;2024-01-15T12:15:33;9.70;;;6.90;;
78614;SDS011;67937;52.488;20.952;2024-01-15T12:18:01;8.90;;;5.00;;
78614;SDS011;67937;52.488;20.952;2024-01-15T12:20:30;9.90;;;5.10;;
78614;SDS011;67937;52.488;20.952;2024-01-15T12:23:00;6.20;;;4.00;;
78614;SDS011;67937;52.488;20.952;2024-01-15T12:25:30;7.30;;;5.50;;
78614;SDS011;67937;52.488;20.952;2024-01-15T12:27:59;10.20;;;6.70;;
78614;SDS011;67937;52.488;20.952;2024-01-15T12:30:29;8.20;;;6.30;;
78614;SDS011;67937;52.488;20.952;2024-01-15T12:33:04;20.10;;;6.30;;
78614;SDS011;67937;52.488;20.952;2024-01-15T12:35:33;10.20;;;6.60;;
78614;SDS011;67937;52.488;20.952;2024-01-15T12:38:02;9.80;;;6.80;;
78614;SDS011;67937;52.488;20.952;2024-01-15T12:40:31;8.50;;;4.90;;
78614;SDS011;67937;52.488;20.952;2024-01-15T12:43:00;7.20;;;6.00;;
78614;SDS011;67937;52.488;20.952;2024-01-15T12:45:29;6.50;;;5.20;;
78614;SDS011;67937;52.488;20.952;2024-01-15T12:47:58;8.70;;;5.30;;
78614;SDS011;67937;52.488;20.952;2024-01-15T12:50:26;12.40;;;7.10;;
78614;SDS011;67937;52.488;20.952;2024-01-15T12:52:54;10.00;;;5.60;;
78614;SDS011;67937;52.488;20.952;2024-01-15T12:55:22;6.80;;;4.20;;
78614;SDS011;67937;52.488;20.952;2024-01-15T12:57:50;9.40;;;4.30;;
78614;SDS011;67937;52.488;20.952;2024-01-15T13:00:21;9.40;;;7.10;;
78614;SDS011;67937;52.488;20.952;2024-01-15T13:02:49;8.20;;;5.90;;
78614;SDS011;67937;52.488;20.952;2024-01-15T13:05:17;9.60;;;6.80;;
78614;SDS011;67937;52.488;20.952;2024-01-15T13:07:47;11.20;;;6.20;;
78614;SDS011;67937;52.488;20.952;2024-01-15T13:10:15;4.40;;;4.00;;
78614;SDS011;67937;52.488;20.952;2024-01-15T13:12:43;8.10;;;5.30;;
78614;SDS011;67937;52.488;20.952;2024-01-15T13:15:11;5.50;;;4.20;;
78614;SDS011;67937;52.488;20.952;2024-01-15T13:17:39;7.00;;;5.10;;
78614;SDS011;67937;52.488;20.952;2024-01-15T13:20:07;7.20;;;4.70;;
78614;SDS011;67937;52.488;20.952;2024-01-15T13:22:37;9.10;;;5.50;;
78614;SDS011;67937;52.488;20.952;2024-01-15T13:25:06;7.20;;;5.20;;
78614;SDS011;67937;52.488;20.952;2024-01-15T13:27:35;8.90;;;5.70;;
78614;SDS011;67937;52.488;20.952;2024-01-15T13:30:03;6.10;;;4.60;;
78614;SDS011;67937;52.488;20.952;2024-01-15T13:32:34;10.00;;;5.80;;
78614;SDS011;67937;52.488;20.952;2024-01-15T13:35:02;8.10;;;5.00;;
78614;SDS011;67937;52.488;20.952;2024-01-15T13:37:32;8.90;;;5.10;;
78614;SDS011;67937;52.488;20.952;2024-01-15T13:40:00;6.70;;;4.80;;
78614;SDS011;67937;52.488;20.952;2024-01-15T13:42:29;10.40;;;6.80;;
78614;SDS011;67937;52.488;20.952;2024-01-15T13:44:57;7.80;;;3.60;;
78614;SDS011;67937;52.488;20.952;2024-01-15T13:47:25;5.80;;;4.50;;
78614;SDS011;67937;52.488;20.952;2024-01-15T13:49:53;8.30;;;4.20;;
78614;SDS011;67937;52.488;20.952;2024-01-15T13:52:21;5.90;;;4.20;;
78614;SDS011;67937;52.488;20.952;2024-01-15T13:54:49;10.70;;;6.50;;
78614;SDS011;67937;52.488;20.952;2024-01-15T13:57:17;7.70;;;5.50;;
78614;SDS011;67937;52.488;20.952;2024-01-15T13:59:45;10.30;;;5.80;;
78614;SDS011;67937;52.488;20.952;2024-01-15T14:02:13;8.00;;;4.50;;
78614;SDS011;67937;52.488;20.952;2024-01-15T14:04:42;8.20;;;4.10;;
78614;SDS011;67937;52.488;20.952;2024-01-15T14:07:10;9.60;;;5.90;;
78614;SDS011;67937;52.488;20.952;2024-01-15T14:09:38;11.40;;;6.50;;
78614;SDS011;67937;52.488;20.952;2024-01-15T14:12:06;10.50;;;5.20;;
78614;SDS011;67937;52.488;20.952;2024-01-15T14:14:34;9.20;;;5.30;;
78614;SDS011;67937;52.488;20.952;2024-01-15T14:17:02;7.30;;;5.90;;
78614;SDS011;67937;52.488;20.952;2024-01-15T14:19:30;10.00;;;6.40;;
78614;SDS011;67937;52.488;20.952;2024-01-15T14:21:58;12.50;;;6.00;;
78614;SDS011;67937;52.488;20.952;2024-01-15T14:24:26;5.60;;;3.30;;
78614;SDS011;67937;52.488;20.952;2024-01-15T14:26:54;5.10;;;3.00;;
78614;SDS011;67937;52.488;20.952;2024-01-15T14:29:23;13.10;;;5.30;;
78614;SDS011;67937;52.488;20.952;2024-01-15T14:31:53;9.00;;;6.30;;
78614;SDS011;67937;52.488;20.952;2024-01-15T14:34:21;7.40;;;4.00;;
78614;SDS011;67937;52.488;20.952;2024-01-15T14:36:49;9.90;;;5.90;;
78614;SDS011;67937;52.488;20.952;2024-01-15T14:39:20;11.10;;;5.50;;
78614;SDS011;67937;52.488;20.952;2024-01-15T14:41:49;10.40;;;6.20;;
78614;SDS011;67937;52.488;20.952;2024-01-15T14:44:17;10.80;;;5.90;;
78614;SDS011;67937;52.488;20.952;2024-01-15T14:46:45;8.00;;;3.80;;
78614;SDS011;67937;52.488;20.952;2024-01-15T14:49:13;9.90;;;5.90;;